METAR Data
IDs: Format: Raw Decoded Include TAF

Data at: 0222 UTC 06 Dec 2020

METAR for:PAAK (Atka Arpt, AK, US)
Text:PAAK 060156Z AUTO 05015G21KT 7SM -RA FEW012 BKN028 OVC060 04/00 A2918 RMK AO2 PK WND 04026/0136 SLP884 P0000 T00390000
Temperature: 3.9°C ( 39°F)
Dewpoint: 0.0°C ( 32°F) [RH = 76%]
Pressure (altimeter):29.18 inches Hg ( 988.2 mb) [Sea level pressure: 988.4 mb]
Winds:from the NE (50 degrees) at 17 MPH (15 knots; 7.7 m/s) gusting to 24 MPH (21 knots; 10.8 m/s)
Visibility: 7 sm ( 11 km)
Ceiling:2800 feet AGL
Clouds: few clouds at 1200 feet AGL, broken clouds at 2800 feet AGL, overcast cloud deck at 6000 feet AGL
Weather:-RA (light rain)
QC Flag:automated observation with no human augmentation
Text:PAAK 060056Z AUTO 04014G17KT 7SM -RA FEW025 OVC033 04/01 A2916 RMK AO2 SLP875 P0001 T00440006
Temperature: 4.4°C ( 40°F)
Dewpoint: 0.6°C ( 33°F) [RH = 76%]
Pressure (altimeter):29.16 inches Hg ( 987.6 mb) [Sea level pressure: 987.5 mb]
Winds:from the NE (40 degrees) at 16 MPH (14 knots; 7.2 m/s) gusting to 20 MPH (17 knots; 8.7 m/s)
Visibility: 7 sm ( 11 km)
Ceiling:3300 feet AGL
Clouds: few clouds at 2500 feet AGL, overcast cloud deck at 3300 feet AGL
Weather:-RA (light rain)
QC Flag:automated observation with no human augmentation
Text:PAAK 060041Z AUTO 06010KT 7SM -RA SCT025 OVC033 04/01 A2916 RMK AO2 P0001
Temperature: 4.0°C ( 39°F)
Dewpoint: 1.0°C ( 34°F) [RH = 81%]
Pressure (altimeter):29.16 inches Hg ( 987.6 mb)
Winds:from the ENE (60 degrees) at 12 MPH (10 knots; 5.1 m/s)
Visibility: 7 sm ( 11 km)
Ceiling:3300 feet AGL
Clouds: scattered clouds at 2500 feet AGL, overcast cloud deck at 3300 feet AGL
Weather:-RA (light rain)
QC Flag:automated observation with no human augmentation
Text:PAAK 052356Z AUTO 06018G23KT 3SM -RA BKN025 OVC031 04/01 A2915 RMK AO2 RAB32 SLP873 P0000 60012 T00390011 10050 20028 51006
Temperature: 3.9°C ( 39°F)
Dewpoint: 1.1°C ( 34°F) [RH = 82%]
Pressure (altimeter):29.15 inches Hg ( 987.2 mb) [Sea level pressure: 987.3 mb]
Winds:from the ENE (60 degrees) at 21 MPH (18 knots; 9.3 m/s) gusting to 26 MPH (23 knots; 11.8 m/s)
Visibility: 3 sm ( 5 km)
Ceiling:2500 feet AGL
Clouds: broken clouds at 2500 feet AGL, overcast cloud deck at 3100 feet AGL
Weather:-RA (light rain)
QC Flag:automated observation with no human augmentation
Text:PAAK 052220Z AUTO 06017G26KT 6SM BR SCT018 BKN025 OVC060 04/02 A2915 RMK AO2 PK WND 06026/2214 RAE08 P0000
Temperature: 4.0°C ( 39°F)
Dewpoint: 2.0°C ( 36°F) [RH = 87%]
Pressure (altimeter):29.15 inches Hg ( 987.2 mb)
Winds:from the ENE (60 degrees) at 20 MPH (17 knots; 8.7 m/s) gusting to 30 MPH (26 knots; 13.4 m/s)
Visibility: 6 sm ( 10 km)
Ceiling:2500 feet AGL
Clouds: scattered clouds at 1800 feet AGL, broken clouds at 2500 feet AGL, overcast cloud deck at 6000 feet AGL
Weather:BR (mist)
QC Flag:automated observation with no human augmentation
Text:PAAK 052156Z AUTO 06018G22KT 6SM -RA BR BKN015 BKN022 OVC036 04/02 A2914 RMK AO2 PK WND 07029/2130 SLP869 P0001 T00440022
Temperature: 4.4°C ( 40°F)
Dewpoint: 2.2°C ( 36°F) [RH = 86%]
Pressure (altimeter):29.14 inches Hg ( 986.9 mb) [Sea level pressure: 986.9 mb]
Winds:from the ENE (60 degrees) at 21 MPH (18 knots; 9.3 m/s) gusting to 25 MPH (22 knots; 11.3 m/s)
Visibility: 6 sm ( 10 km)
Ceiling:1500 feet AGL
Clouds: broken clouds at 1500 feet AGL, broken clouds at 2200 feet AGL, overcast cloud deck at 3600 feet AGL
Weather:-RA BR (light rain, mist)
QC Flag:automated observation with no human augmentation
Text:PAAK 052107Z AUTO 06015G20KT 4SM -RA BR BKN016 BKN025 OVC031 04/02 A2913 RMK AO2 P0001
Temperature: 4.0°C ( 39°F)
Dewpoint: 2.0°C ( 36°F) [RH = 87%]
Pressure (altimeter):29.13 inches Hg ( 986.5 mb)
Winds:from the ENE (60 degrees) at 17 MPH (15 knots; 7.7 m/s) gusting to 23 MPH (20 knots; 10.3 m/s)
Visibility: 4 sm ( 6 km)
Ceiling:1600 feet AGL
Clouds: broken clouds at 1600 feet AGL, broken clouds at 2500 feet AGL, overcast cloud deck at 3100 feet AGL
Weather:-RA BR (light rain, mist)
QC Flag:automated observation with no human augmentation
Text:PAAK 052056Z AUTO 06010KT 2SM -RA BR BKN016 OVC023 03/01 A2913 RMK AO2 PK WND 07028/2042 VIS 1 1/2V5 SLP866 P0011 60011 T00280011 53020
Temperature: 2.8°C ( 37°F)
Dewpoint: 1.1°C ( 34°F) [RH = 89%]
Pressure (altimeter):29.13 inches Hg ( 986.5 mb) [Sea level pressure: 986.6 mb]
Winds:from the ENE (60 degrees) at 12 MPH (10 knots; 5.1 m/s)
Visibility: 2.00 sm ( 3.22 km)
Ceiling:1600 feet AGL
Clouds: broken clouds at 1600 feet AGL, overcast cloud deck at 2300 feet AGL
Weather:-RA BR (light rain, mist)
QC Flag:automated observation with no human augmentation
Text:PAAK 051956Z AUTO 06013G22KT 10SM -RA BKN029 OVC034 04/02 A2910 RMK AO2 SLP855 P0000 T00440017
Temperature: 4.4°C ( 40°F)
Dewpoint: 1.7°C ( 35°F) [RH = 83%]
Pressure (altimeter):29.10 inches Hg ( 985.5 mb) [Sea level pressure: 985.5 mb]
Winds:from the ENE (60 degrees) at 15 MPH (13 knots; 6.7 m/s) gusting to 25 MPH (22 knots; 11.3 m/s)
Visibility:10 or more sm (16+ km)
Ceiling:2900 feet AGL
Clouds: broken clouds at 2900 feet AGL, overcast cloud deck at 3400 feet AGL
Weather:-RA (light rain)
QC Flag:automated observation with no human augmentation
Text:PAAK 051856Z AUTO 05012G20KT 6SM -RA FEW023 BKN028 OVC035 04/01 A2909 RMK AO2 SLP853 P0000 T00440011
Temperature: 4.4°C ( 40°F)
Dewpoint: 1.1°C ( 34°F) [RH = 79%]
Pressure (altimeter):29.09 inches Hg ( 985.2 mb) [Sea level pressure: 985.3 mb]
Winds:from the NE (50 degrees) at 14 MPH (12 knots; 6.2 m/s) gusting to 23 MPH (20 knots; 10.3 m/s)
Visibility: 6 sm ( 10 km)
Ceiling:2800 feet AGL
Clouds: few clouds at 2300 feet AGL, broken clouds at 2800 feet AGL, overcast cloud deck at 3500 feet AGL
Weather:-RA (light rain)
QC Flag:automated observation with no human augmentation
Text:PAAK 051756Z AUTO 06014G21KT 6SM -RA BKN023 OVC029 04/02 A2907 RMK AO2 SLP846 P0004 60008 T00440017 10050 20039 53006
Temperature: 4.4°C ( 40°F)
Dewpoint: 1.7°C ( 35°F) [RH = 83%]
Pressure (altimeter):29.07 inches Hg ( 984.5 mb) [Sea level pressure: 984.6 mb]
Winds:from the ENE (60 degrees) at 16 MPH (14 knots; 7.2 m/s) gusting to 24 MPH (21 knots; 10.8 m/s)
Visibility: 6 sm ( 10 km)
Ceiling:2300 feet AGL
Clouds: broken clouds at 2300 feet AGL, overcast cloud deck at 2900 feet AGL
Weather:-RA (light rain)
QC Flag:automated observation with no human augmentation
Text:PAAK 051729Z AUTO 06014G19KT 7SM -RA SCT019 SCT027 OVC032 04/01 A2907 RMK AO2 P0003
Temperature: 4.0°C ( 39°F)
Dewpoint: 1.0°C ( 34°F) [RH = 81%]
Pressure (altimeter):29.07 inches Hg ( 984.5 mb)
Winds:from the ENE (60 degrees) at 16 MPH (14 knots; 7.2 m/s) gusting to 22 MPH (19 knots; 9.8 m/s)
Visibility: 7 sm ( 11 km)
Ceiling:3200 feet AGL
Clouds: scattered clouds at 1900 feet AGL, scattered clouds at 2700 feet AGL, overcast cloud deck at 3200 feet AGL
Weather:-RA (light rain)
QC Flag:automated observation with no human augmentation
Text:PAAK 051656Z AUTO 07017G26KT 6SM -RA SCT020 OVC028 04/01 A2907 RMK AO2 PK WND 05026/1654 SLP844 P0002 T00440011
Temperature: 4.4°C ( 40°F)
Dewpoint: 1.1°C ( 34°F) [RH = 79%]
Pressure (altimeter):29.07 inches Hg ( 984.5 mb) [Sea level pressure: 984.4 mb]
Winds:from the ENE (70 degrees) at 20 MPH (17 knots; 8.7 m/s) gusting to 30 MPH (26 knots; 13.4 m/s)
Visibility: 6 sm ( 10 km)
Ceiling:2800 feet AGL
Clouds: scattered clouds at 2000 feet AGL, overcast cloud deck at 2800 feet AGL
Weather:-RA (light rain)
QC Flag:automated observation with no human augmentation
Text:PAAK 051631Z AUTO 06016G24KT 5SM RA BR SCT018 BKN027 OVC035 04/02 A2906 RMK AO2 P0001
Temperature: 4.0°C ( 39°F)
Dewpoint: 2.0°C ( 36°F) [RH = 87%]
Pressure (altimeter):29.06 inches Hg ( 984.2 mb)
Winds:from the ENE (60 degrees) at 18 MPH (16 knots; 8.2 m/s) gusting to 28 MPH (24 knots; 12.3 m/s)
Visibility: 5 sm ( 8 km)
Ceiling:2700 feet AGL
Clouds: scattered clouds at 1800 feet AGL, broken clouds at 2700 feet AGL, overcast cloud deck at 3500 feet AGL
Weather:RA BR (moderate rain, mist)
QC Flag:automated observation with no human augmentation
Text:PAAK 051623Z AUTO 07019G24KT 6SM -RA SCT027 OVC035 04/02 A2905 RMK AO2 P0000
Temperature: 4.0°C ( 39°F)
Dewpoint: 2.0°C ( 36°F) [RH = 87%]
Pressure (altimeter):29.05 inches Hg ( 983.8 mb)
Winds:from the ENE (70 degrees) at 22 MPH (19 knots; 9.8 m/s) gusting to 28 MPH (24 knots; 12.3 m/s)
Visibility: 6 sm ( 10 km)
Ceiling:3500 feet AGL
Clouds: scattered clouds at 2700 feet AGL, overcast cloud deck at 3500 feet AGL
Weather:-RA (light rain)
QC Flag:automated observation with no human augmentation
Text:PAAK 051556Z AUTO 06014G21KT 7SM -RA SCT020 BKN027 OVC033 04/01 A2905 RMK AO2 SLP839 P0001 T00390011
Temperature: 3.9°C ( 39°F)
Dewpoint: 1.1°C ( 34°F) [RH = 82%]
Pressure (altimeter):29.05 inches Hg ( 983.8 mb) [Sea level pressure: 983.9 mb]
Winds:from the ENE (60 degrees) at 16 MPH (14 knots; 7.2 m/s) gusting to 24 MPH (21 knots; 10.8 m/s)
Visibility: 7 sm ( 11 km)
Ceiling:2700 feet AGL
Clouds: scattered clouds at 2000 feet AGL, broken clouds at 2700 feet AGL, overcast cloud deck at 3300 feet AGL
Weather:-RA (light rain)
QC Flag:automated observation with no human augmentation
Text:PAAK 051456Z AUTO 05014G20KT 9SM -RA BKN024 OVC033 04/01 A2906 RMK AO2 SLP840 P0001 60001 T00440011 50003
Temperature: 4.4°C ( 40°F)
Dewpoint: 1.1°C ( 34°F) [RH = 79%]
Pressure (altimeter):29.06 inches Hg ( 984.2 mb) [Sea level pressure: 984.0 mb]
Winds:from the NE (50 degrees) at 16 MPH (14 knots; 7.2 m/s) gusting to 23 MPH (20 knots; 10.3 m/s)
Visibility: 9 sm ( 14 km)
Ceiling:2400 feet AGL
Clouds: broken clouds at 2400 feet AGL, overcast cloud deck at 3300 feet AGL
Weather:-RA (light rain)
QC Flag:automated observation with no human augmentation